createdAt,value
2022-10-18T00:00:08.030Z,20.27
2022-10-18T00:00:43.527Z,19.73
2022-10-18T00:01:15.774Z,20.67
2022-10-18T00:01:48.206Z,17.58
2022-10-18T00:02:21.173Z,20.92
2022-10-18T00:02:53.481Z,19.05
2022-10-18T00:03:25.854Z,22.63
2022-10-18T00:03:58.149Z,23.42
2022-10-18T00:04:30.488Z,23.40
2022-10-18T00:05:03.731Z,19.85
2022-10-18T00:05:36.016Z,19.75
2022-10-18T00:06:09.425Z,21.55
2022-10-18T00:06:43.537Z,21.58
2022-10-18T00:07:16.206Z,20.23
2022-10-18T00:07:48.558Z,21.55
2022-10-18T00:08:21.302Z,20.40
2022-10-18T00:08:53.643Z,23.48
2022-10-18T00:09:27.647Z,20.73
2022-10-18T00:09:59.960Z,19.15
2022-10-18T00:10:32.299Z,23.25
2022-10-18T00:11:04.884Z,22.10
2022-10-18T00:11:37.281Z,22.64
2022-10-18T00:12:09.543Z,20.18
2022-10-18T00:12:42.165Z,20.65
2022-10-18T00:13:14.530Z,22.50
2022-10-18T00:13:46.799Z,17.88
2022-10-18T00:14:19.144Z,19.50
2022-10-18T00:14:51.435Z,18.45
2022-10-18T00:15:23.837Z,20.08
2022-10-18T00:15:57.931Z,19.88
2022-10-18T00:16:30.280Z,20.56
2022-10-18T00:17:02.552Z,22.90
2022-10-18T00:17:35.582Z,21.00
2022-10-18T00:18:07.959Z,21.17
2022-10-18T00:18:40.493Z,23.88
2022-10-18T00:19:12.798Z,20.58
2022-10-18T00:19:46.878Z,22.52
2022-10-18T00:20:19.192Z,19.27
2022-10-18T00:21:04.848Z,22.75
2022-10-18T00:21:37.485Z,18.94
2022-10-18T00:22:09.763Z,25.20
2022-10-18T00:22:42.068Z,21.60
2022-10-18T00:23:14.366Z,20.34
2022-10-18T00:23:47.417Z,19.70
2022-10-18T00:24:19.854Z,19.60
2022-10-18T00:24:52.203Z,22.27
2022-10-18T00:25:24.468Z,20.35
2022-10-18T00:26:12.213Z,20.65
2022-10-18T00:26:44.774Z,22.60
2022-10-18T00:27:17.157Z,16.15
2022-10-18T00:27:49.474Z,19.02
2022-10-18T00:28:21.780Z,20.02
2022-10-18T00:28:58.592Z,20.08
2022-10-18T00:29:31.063Z,19.98
2022-10-18T00:30:03.828Z,22.15
2022-10-18T00:30:36.390Z,20.08
2022-10-18T00:31:13.560Z,18.66
2022-10-18T00:31:46.076Z,18.34
2022-10-18T00:32:18.657Z,20.23
2022-10-18T00:32:51.446Z,19.18
2022-10-18T00:33:23.811Z,21.00
2022-10-18T00:34:00.598Z,20.50
2022-10-18T00:34:32.806Z,18.30
2022-10-18T00:35:05.876Z,21.42
2022-10-18T00:35:38.257Z,27.62
2022-10-18T00:36:11.547Z,20.80
2022-10-18T00:36:44.407Z,19.46
2022-10-18T00:37:16.797Z,17.72
2022-10-18T00:37:49.107Z,18.56
2022-10-18T00:38:21.641Z,17.72
2022-10-18T00:38:54.092Z,20.68
2022-10-18T00:39:26.445Z,18.28
2022-10-18T00:39:58.715Z,17.54
2022-10-18T00:40:31.209Z,18.02
2022-10-18T00:41:03.877Z,21.16
2022-10-18T00:41:38.082Z,18.96
2022-10-18T00:42:31.826Z,18.76
2022-10-18T00:43:04.428Z,20.13
2022-10-18T00:43:56.102Z,18.90
2022-10-18T00:44:28.346Z,20.92
2022-10-18T00:45:29.966Z,18.50
2022-10-18T00:46:02.283Z,17.28
2022-10-18T00:46:36.160Z,21.68
2022-10-18T00:47:09.764Z,17.46
2022-10-18T00:47:43.995Z,18.15
2022-10-18T00:48:17.088Z,17.78
2022-10-18T00:48:50.118Z,17.92
2022-10-18T00:49:27.882Z,17.82
2022-10-18T00:50:02.434Z,18.94
2022-10-18T00:50:35.313Z,17.94
2022-10-18T00:51:07.633Z,18.66
2022-10-18T00:51:47.641Z,21.32
2022-10-18T00:52:23.173Z,21.92
2022-10-18T00:53:00.946Z,19.80
2022-10-18T00:53:33.319Z,18.88
2022-10-18T00:54:05.620Z,20.26
2022-10-18T00:54:39.167Z,18.83
2022-10-18T00:55:11.829Z,18.10
2022-10-18T00:55:44.554Z,20.48
2022-10-18T00:56:17.452Z,17.92
2022-10-18T00:56:49.915Z,18.98
2022-10-18T00:57:22.406Z,20.64
2022-10-18T00:58:32.849Z,20.48
2022-10-18T00:59:05.158Z,21.56
2022-10-18T00:59:37.625Z,18.78
2022-10-18T01:00:10.569Z,23.05
2022-10-18T01:00:42.906Z,19.84
2022-10-18T01:01:15.434Z,18.40
2022-10-18T01:01:47.858Z,21.95
2022-10-18T01:02:20.328Z,17.88
2022-10-18T01:02:52.877Z,17.98
2022-10-18T01:03:25.187Z,17.80
2022-10-18T01:03:58.223Z,18.70
2022-10-18T01:04:30.544Z,18.28
2022-10-18T01:05:03.139Z,20.42
2022-10-18T01:05:42.166Z,22.04
2022-10-18T01:06:14.437Z,18.88
2022-10-18T01:06:59.543Z,18.80
2022-10-18T01:07:50.541Z,17.05
2022-10-18T01:08:25.966Z,17.64
2022-10-18T01:09:13.139Z,18.17
2022-10-18T01:10:10.998Z,19.90
2022-10-18T01:10:52.805Z,18.90
2022-10-18T01:11:34.195Z,17.76
2022-10-18T01:12:19.924Z,20.90
2022-10-18T01:12:52.186Z,23.78
2022-10-18T01:13:25.850Z,21.82
2022-10-18T01:14:13.606Z,15.72
2022-10-18T01:14:54.554Z,18.24
2022-10-18T01:15:31.238Z,16.33
2022-10-18T01:16:26.696Z,18.35
2022-10-18T01:17:37.781Z,20.14
2022-10-18T01:18:28.799Z,19.98
2022-10-18T01:19:04.117Z,18.36
2022-10-18T01:19:47.965Z,18.76
2022-10-18T01:20:23.142Z,20.78
2022-10-18T01:21:02.221Z,18.98
2022-10-18T01:21:46.007Z,16.98
2022-10-18T01:22:18.258Z,21.13
2022-10-18T01:22:50.902Z,19.46
2022-10-18T01:23:50.105Z,18.40
2022-10-18T01:24:22.335Z,18.15
2022-10-18T01:24:57.721Z,18.28
2022-10-18T01:25:30.174Z,15.56
2022-10-18T01:26:02.634Z,19.06
2022-10-18T01:26:41.064Z,18.85
2022-10-18T01:27:13.502Z,17.78
2022-10-18T01:28:04.401Z,18.85
2022-10-18T01:28:54.048Z,17.73
2022-10-18T01:29:33.047Z,18.40
2022-10-18T01:30:27.639Z,24.65
2022-10-18T01:31:09.680Z,20.64
2022-10-18T01:31:47.425Z,18.48
2022-10-18T01:32:22.030Z,19.74
2022-10-18T01:32:55.442Z,20.70
2022-10-18T01:33:41.911Z,17.52
2022-10-18T01:34:15.408Z,18.06
2022-10-18T01:34:49.032Z,17.96
2022-10-18T01:35:32.331Z,15.42
2022-10-18T01:36:04.737Z,17.82
2022-10-18T01:36:44.656Z,21.14
2022-10-18T01:37:18.031Z,15.82
2022-10-18T01:37:52.235Z,18.46
2022-10-18T01:38:25.755Z,22.30
2022-10-18T01:38:59.119Z,23.16
2022-10-18T01:39:33.291Z,19.12
2022-10-18T01:40:09.155Z,17.12
2022-10-18T01:40:42.481Z,19.82
2022-10-18T01:41:16.125Z,19.38
2022-10-18T01:41:49.510Z,18.80
2022-10-18T01:42:21.807Z,18.22
2022-10-18T01:42:54.513Z,23.56
2022-10-18T01:43:28.013Z,15.23
2022-10-18T01:44:02.517Z,19.96
2022-10-18T01:44:35.406Z,18.23
2022-10-18T01:45:08.670Z,18.74
2022-10-18T01:45:41.884Z,17.20
2022-10-18T01:46:17.775Z,19.68
2022-10-18T01:46:51.333Z,23.42
2022-10-18T01:47:23.885Z,18.02
2022-10-18T01:47:56.687Z,18.48
2022-10-18T01:48:29.787Z,19.82
2022-10-18T01:49:02.797Z,19.56
2022-10-18T01:49:35.298Z,19.14
2022-10-18T01:50:07.737Z,17.36
2022-10-18T01:50:40.032Z,17.88
2022-10-18T01:51:12.473Z,18.90
2022-10-18T01:51:44.832Z,19.52
2022-10-18T01:52:17.085Z,21.98
2022-10-18T01:52:50.086Z,20.17
2022-10-18T01:53:32.616Z,23.14
2022-10-18T01:54:05.446Z,17.42
2022-10-18T01:54:39.196Z,17.60
2022-10-18T01:55:11.860Z,18.20
2022-10-18T01:55:46.552Z,18.56
2022-10-18T01:56:21.535Z,18.00
2022-10-18T01:57:12.238Z,18.00
2022-10-18T01:57:57.853Z,19.42
2022-10-18T01:58:48.592Z,17.10
2022-10-18T01:59:33.766Z,20.74
2022-10-18T02:00:06.400Z,22.26
2022-10-18T02:00:44.544Z,22.44
2022-10-18T02:01:22.160Z,19.30
2022-10-18T02:02:00.851Z,19.38
2022-10-18T02:02:42.155Z,17.86
2022-10-18T02:03:21.351Z,20.14
2022-10-18T02:03:55.501Z,18.55
2022-10-18T02:04:28.305Z,20.70
2022-10-18T02:05:15.819Z,20.66
2022-10-18T02:05:54.573Z,19.56
2022-10-18T02:06:32.004Z,17.20
2022-10-18T02:07:09.042Z,23.12
2022-10-18T02:07:41.731Z,19.72
2022-10-18T02:08:40.267Z,17.88
2022-10-18T02:09:19.147Z,22.66
2022-10-18T02:10:01.868Z,22.36
2022-10-18T02:10:36.211Z,18.66
2022-10-18T02:11:13.456Z,19.40
2022-10-18T02:11:47.000Z,19.56
2022-10-18T02:12:19.906Z,23.64
2022-10-18T02:12:53.192Z,16.86
2022-10-18T02:13:28.230Z,19.10
2022-10-18T02:14:03.756Z,20.54
2022-10-18T02:14:36.829Z,17.60
2022-10-18T02:15:10.546Z,21.04
2022-10-18T02:15:45.568Z,18.88
2022-10-18T02:16:20.273Z,16.16
2022-10-18T02:16:55.104Z,18.92
2022-10-18T02:17:28.949Z,17.88
2022-10-18T02:18:02.292Z,19.40
2022-10-18T02:18:36.720Z,20.72
2022-10-18T02:19:15.581Z,19.84
2022-10-18T02:19:49.684Z,17.46
2022-10-18T02:20:24.437Z,19.50
2022-10-18T02:20:56.748Z,21.24
2022-10-18T02:21:29.895Z,18.12
2022-10-18T02:22:02.558Z,17.26
2022-10-18T02:22:36.183Z,21.40
2022-10-18T02:23:09.921Z,21.82
2022-10-18T02:23:43.580Z,21.40
2022-10-18T02:24:16.155Z,21.08
2022-10-18T02:24:53.798Z,22.06
2022-10-18T02:25:29.088Z,21.48
2022-10-18T02:26:02.344Z,19.94
2022-10-18T02:26:34.647Z,18.32
2022-10-18T02:27:07.221Z,19.96
2022-10-18T02:27:40.056Z,20.84
2022-10-18T02:28:12.568Z,20.78
2022-10-18T02:28:45.150Z,20.20
2022-10-18T02:29:17.560Z,20.88
2022-10-18T02:29:50.064Z,19.94
2022-10-18T02:30:24.609Z,21.92
2022-10-18T02:31:20.543Z,23.74
2022-10-18T02:31:55.945Z,21.40
2022-10-18T02:32:28.322Z,21.46
2022-10-18T02:33:13.223Z,20.36
2022-10-18T02:33:45.480Z,20.80
2022-10-18T02:34:21.626Z,24.14
2022-10-18T02:34:58.692Z,20.28
2022-10-18T02:35:36.832Z,20.30
2022-10-18T02:36:32.159Z,23.14
2022-10-18T02:37:04.846Z,22.34
2022-10-18T02:37:39.082Z,21.72
2022-10-18T02:38:12.386Z,19.88
2022-10-18T02:38:45.913Z,23.78
2022-10-18T02:39:20.236Z,21.76
2022-10-18T02:39:52.484Z,20.64
2022-10-18T02:40:25.414Z,22.56
2022-10-18T02:40:57.859Z,22.22
2022-10-18T02:41:31.090Z,23.54
2022-10-18T02:42:07.091Z,21.56
2022-10-18T02:42:55.789Z,19.90
2022-10-18T02:43:28.146Z,19.04
2022-10-18T02:44:00.685Z,22.74
2022-10-18T02:44:33.936Z,20.62
2022-10-18T02:45:06.695Z,23.52
2022-10-18T02:45:39.027Z,21.02
2022-10-18T02:46:11.423Z,21.46
2022-10-18T02:46:44.315Z,21.30
2022-10-18T02:47:16.591Z,21.30
2022-10-18T02:47:48.840Z,24.66
2022-10-18T02:48:21.319Z,19.50
2022-10-18T02:48:53.647Z,19.80
2022-10-18T02:49:26.109Z,20.22
2022-10-18T02:49:58.508Z,18.66
2022-10-18T02:50:30.903Z,22.56
2022-10-18T02:51:03.172Z,20.14
2022-10-18T02:51:35.554Z,22.76
2022-10-18T02:52:07.877Z,21.40
2022-10-18T02:52:40.155Z,19.02
2022-10-18T02:53:12.478Z,19.18
2022-10-18T02:53:44.756Z,20.62
2022-10-18T02:54:17.148Z,20.54
2022-10-18T02:54:49.424Z,20.30
2022-10-18T02:55:21.857Z,19.66
2022-10-18T02:55:54.181Z,19.38
2022-10-18T02:56:26.586Z,18.40
2022-10-18T02:56:58.990Z,19.88
2022-10-18T02:57:31.464Z,22.88
2022-10-18T02:58:03.993Z,23.40
2022-10-18T02:58:36.278Z,21.20
2022-10-18T02:59:08.933Z,21.40
2022-10-18T02:59:41.333Z,17.40
2022-10-18T03:00:14.055Z,24.58
2022-10-18T03:00:46.440Z,22.26
2022-10-18T03:01:18.827Z,17.62
2022-10-18T03:01:51.263Z,23.08
2022-10-18T03:02:23.674Z,21.34
2022-10-18T03:02:55.979Z,21.24
2022-10-18T03:03:28.322Z,24.56
2022-10-18T03:04:00.682Z,18.90
2022-10-18T03:04:32.925Z,19.88
2022-10-18T03:05:05.435Z,21.52
2022-10-18T03:05:37.688Z,18.56
2022-10-18T03:06:09.944Z,19.30
2022-10-18T03:06:42.214Z,20.62
2022-10-18T03:07:14.711Z,20.82
2022-10-18T03:07:47.066Z,17.98
2022-10-18T03:08:19.835Z,22.36
2022-10-18T03:08:52.238Z,16.52
2022-10-18T03:09:24.546Z,18.38
2022-10-18T03:09:56.876Z,22.08
2022-10-18T03:10:29.263Z,20.26
2022-10-18T03:11:01.631Z,17.16
2022-10-18T03:11:33.943Z,18.52
2022-10-18T03:12:06.282Z,20.08
2022-10-18T03:12:38.560Z,20.02
2022-10-18T03:13:11.459Z,19.42
2022-10-18T03:13:43.761Z,20.18
2022-10-18T03:14:16.035Z,20.80
2022-10-18T03:14:48.289Z,18.98
2022-10-18T03:15:20.596Z,20.80
2022-10-18T03:15:53.016Z,20.74
2022-10-18T03:16:25.555Z,20.02
2022-10-18T03:16:57.830Z,19.52
2022-10-18T03:17:31.359Z,18.04
2022-10-18T03:18:03.937Z,20.16
2022-10-18T03:18:36.237Z,21.14
2022-10-18T03:19:08.508Z,21.86
2022-10-18T03:19:40.904Z,21.16
2022-10-18T03:20:14.077Z,19.84
2022-10-18T03:20:46.377Z,17.78
2022-10-18T03:21:18.759Z,18.60
2022-10-18T03:21:51.041Z,18.96
2022-10-18T03:22:25.516Z,18.52
2022-10-18T03:22:57.789Z,20.14
2022-10-18T03:23:30.100Z,24.34
2022-10-18T03:24:02.689Z,22.38
2022-10-18T03:24:35.463Z,24.10
2022-10-18T03:25:07.879Z,18.40
2022-10-18T03:25:42.816Z,19.58
2022-10-18T03:26:18.067Z,19.50
2022-10-18T03:26:50.596Z,20.04
2022-10-18T03:27:23.070Z,22.60
2022-10-18T03:27:55.398Z,19.26
2022-10-18T03:28:27.798Z,17.92
2022-10-18T03:29:00.221Z,19.10
2022-10-18T03:29:32.618Z,17.86
2022-10-18T03:30:05.954Z,19.10
2022-10-18T03:30:39.161Z,21.66
2022-10-18T03:31:11.645Z,24.32
2022-10-18T03:31:44.377Z,22.78
2022-10-18T03:32:16.740Z,21.64
2022-10-18T03:32:49.144Z,21.52
2022-10-18T03:33:21.408Z,23.26
2022-10-18T03:33:53.657Z,20.66
2022-10-18T03:34:25.936Z,23.58
2022-10-18T03:34:58.312Z,19.30
2022-10-18T03:35:30.699Z,21.74
2022-10-18T03:36:03.007Z,24.64
2022-10-18T03:36:35.286Z,22.12
2022-10-18T03:37:07.521Z,19.36
2022-10-18T03:37:40.038Z,24.80
2022-10-18T03:38:12.585Z,28.28
2022-10-18T03:38:45.021Z,23.26
2022-10-18T03:39:17.556Z,21.86
2022-10-18T03:39:50.031Z,20.14
2022-10-18T03:40:22.441Z,21.88
2022-10-18T03:40:54.878Z,20.02
2022-10-18T03:41:27.310Z,23.28
2022-10-18T03:41:59.573Z,35.52
2022-10-18T03:42:31.988Z,35.16
2022-10-18T03:43:04.553Z,21.32
2022-10-18T03:43:37.009Z,21.58
2022-10-18T03:44:09.407Z,21.30
2022-10-18T03:44:41.804Z,23.66
2022-10-18T03:45:14.188Z,18.84
2022-10-18T03:45:46.551Z,20.94
2022-10-18T03:46:19.019Z,21.20
2022-10-18T03:46:51.366Z,22.62
2022-10-18T03:47:23.774Z,25.26
2022-10-18T03:47:56.014Z,20.84
2022-10-18T03:48:28.365Z,22.34
2022-10-18T03:49:00.682Z,21.64
2022-10-18T03:50:06.350Z,20.92
2022-10-18T03:50:38.917Z,19.66
2022-10-18T03:51:11.448Z,20.62
2022-10-18T03:51:43.836Z,18.56
2022-10-18T03:52:16.078Z,20.22
2022-10-18T03:52:48.783Z,20.00
2022-10-18T03:53:21.061Z,19.40
2022-10-18T03:53:53.550Z,21.66
2022-10-18T03:54:26.056Z,20.72
2022-10-18T03:54:58.390Z,18.78
2022-10-18T03:55:30.670Z,20.54
2022-10-18T03:56:03.010Z,20.26
2022-10-18T03:56:35.293Z,23.74
2022-10-18T03:57:07.837Z,23.82
2022-10-18T03:57:40.598Z,24.60
2022-10-18T03:58:12.891Z,21.00
2022-10-18T03:58:45.219Z,20.46
2022-10-18T03:59:18.049Z,22.88
2022-10-18T03:59:50.530Z,18.50
2022-10-18T04:00:23.019Z,19.18
2022-10-18T04:00:55.732Z,20.54
2022-10-18T04:01:28.179Z,18.16
2022-10-18T04:02:00.604Z,20.60
2022-10-18T04:02:33.566Z,19.08
2022-10-18T04:03:06.213Z,18.34
2022-10-18T04:03:38.512Z,20.44
2022-10-18T04:04:10.951Z,22.18
2022-10-18T04:04:43.332Z,23.58
2022-10-18T04:05:15.835Z,19.76
2022-10-18T04:05:48.821Z,17.10
2022-10-18T04:06:21.133Z,18.28
2022-10-18T04:06:53.390Z,19.16
2022-10-18T04:07:25.767Z,23.20
2022-10-18T04:07:58.226Z,24.36
2022-10-18T04:08:31.087Z,22.06
2022-10-18T04:09:05.366Z,21.92
2022-10-18T04:09:40.189Z,17.12
2022-10-18T04:10:12.602Z,22.68
2022-10-18T04:10:45.362Z,23.28
2022-10-18T04:11:18.738Z,21.30
2022-10-18T04:11:51.340Z,21.08
2022-10-18T04:12:23.840Z,19.14
2022-10-18T04:12:56.175Z,21.94
2022-10-18T04:13:28.540Z,21.04
2022-10-18T04:14:00.867Z,23.36
2022-10-18T04:14:33.173Z,18.56
2022-10-18T04:15:05.849Z,20.54
2022-10-18T04:15:38.743Z,22.70
2022-10-18T04:16:11.135Z,22.70
2022-10-18T04:16:43.567Z,25.48
2022-10-18T04:17:15.852Z,20.28
2022-10-18T04:17:48.084Z,25.30
2022-10-18T04:18:20.447Z,26.62
2022-10-18T04:18:52.914Z,21.26
2022-10-18T04:19:25.191Z,22.62
2022-10-18T04:19:57.566Z,26.90
2022-10-18T04:20:29.831Z,23.04
2022-10-18T04:21:02.404Z,20.52
2022-10-18T04:21:34.748Z,20.48
2022-10-18T04:22:07.172Z,23.98
2022-10-18T04:22:39.531Z,22.08
2022-10-18T04:23:11.867Z,24.84
2022-10-18T04:23:44.387Z,22.88
2022-10-18T04:24:17.962Z,26.16
2022-10-18T04:24:50.374Z,25.68
2022-10-18T04:25:22.685Z,22.62
2022-10-18T04:25:54.937Z,27.10
2022-10-18T04:26:27.178Z,36.02
2022-10-18T04:26:59.543Z,65.54
2022-10-18T04:27:31.979Z,83.34
2022-10-18T04:28:05.019Z,85.48
2022-10-18T04:28:40.297Z,72.90
2022-10-18T04:29:12.770Z,78.70
2022-10-18T04:29:45.155Z,61.98
2022-10-18T04:30:17.458Z,63.72
2022-10-18T04:30:50.592Z,56.60
2022-10-18T04:31:22.963Z,43.66
2022-10-18T04:31:55.266Z,41.64
2022-10-18T04:32:29.706Z,40.10
2022-10-18T04:33:01.948Z,35.66
2022-10-18T04:33:34.198Z,37.30
2022-10-18T04:34:06.682Z,39.70
2022-10-18T04:34:39.032Z,36.64
2022-10-18T04:35:11.810Z,36.30
2022-10-18T04:35:44.242Z,33.22
2022-10-18T04:36:16.487Z,36.78
2022-10-18T04:36:48.955Z,34.64
2022-10-18T04:37:21.507Z,29.74
2022-10-18T04:37:54.236Z,27.60
2022-10-18T04:38:26.744Z,25.94
2022-10-18T04:38:59.118Z,27.08
2022-10-18T04:39:31.454Z,30.86
2022-10-18T04:40:04.327Z,31.44
2022-10-18T04:40:37.096Z,26.30
2022-10-18T04:41:09.576Z,24.64
2022-10-18T04:41:41.842Z,25.68
2022-10-18T04:42:14.297Z,25.28
2022-10-18T04:42:46.954Z,19.58
2022-10-18T04:43:19.415Z,23.14
2022-10-18T04:43:51.652Z,23.08
2022-10-18T04:44:24.120Z,19.42
2022-10-18T04:44:56.440Z,23.88
2022-10-18T04:45:28.804Z,22.52
2022-10-18T04:46:01.107Z,21.20
2022-10-18T04:46:33.365Z,22.54
2022-10-18T04:47:05.627Z,23.40
2022-10-18T04:47:37.956Z,22.02
2022-10-18T04:48:10.388Z,24.64
2022-10-18T04:48:42.678Z,21.36
2022-10-18T04:49:15.024Z,21.06
2022-10-18T04:49:47.516Z,23.36
2022-10-18T04:50:19.945Z,22.84
2022-10-18T04:50:52.305Z,24.38
2022-10-18T04:51:24.707Z,22.12
2022-10-18T04:51:57.039Z,22.48
2022-10-18T04:52:29.294Z,19.32
2022-10-18T04:53:01.540Z,21.88
2022-10-18T04:53:33.970Z,20.98
2022-10-18T04:54:06.304Z,22.36
2022-10-18T04:54:38.685Z,20.54
2022-10-18T04:55:11.145Z,20.20
2022-10-18T04:55:48.201Z,20.18
2022-10-18T04:56:20.886Z,27.64
2022-10-18T04:56:53.196Z,24.72
2022-10-18T04:57:25.642Z,21.06
2022-10-18T04:57:58.080Z,20.94
2022-10-18T04:58:30.387Z,23.48
2022-10-18T04:59:02.766Z,21.90
2022-10-18T04:59:35.090Z,21.24
2022-10-18T05:00:07.695Z,21.66
2022-10-18T05:00:40.311Z,21.72
2022-10-18T05:01:13.210Z,22.86
2022-10-18T05:01:45.881Z,25.86
2022-10-18T05:02:18.450Z,22.42
2022-10-18T05:02:50.779Z,25.72
2022-10-18T05:03:23.157Z,25.62
2022-10-18T05:03:55.501Z,22.20
2022-10-18T05:04:27.954Z,23.34
2022-10-18T05:05:00.323Z,25.62
2022-10-18T05:05:49.684Z,25.42
2022-10-18T05:06:24.926Z,21.32
2022-10-18T05:06:57.176Z,25.52
2022-10-18T05:07:29.548Z,23.08
2022-10-18T05:08:01.952Z,22.76
2022-10-18T05:08:35.551Z,24.52
2022-10-18T05:09:07.947Z,23.98
2022-10-18T05:09:40.334Z,23.76
2022-10-18T05:10:12.661Z,24.86
2022-10-18T05:10:45.023Z,26.78
2022-10-18T05:11:17.312Z,28.14
2022-10-18T05:11:49.572Z,24.56
2022-10-18T05:12:22.673Z,21.22
2022-10-18T05:12:55.600Z,25.26
2022-10-18T05:13:27.958Z,20.66
2022-10-18T05:14:00.293Z,20.56
2022-10-18T05:14:32.611Z,22.74
2022-10-18T05:15:05.161Z,23.76
2022-10-18T05:15:37.803Z,21.02
2022-10-18T05:16:11.031Z,22.02
2022-10-18T05:16:43.344Z,19.14
2022-10-18T05:17:15.648Z,20.90
2022-10-18T05:17:48.069Z,21.06
2022-10-18T05:18:20.924Z,22.66
2022-10-18T05:18:53.175Z,23.04
2022-10-18T05:19:25.661Z,20.36
2022-10-18T05:19:57.983Z,22.28
2022-10-18T05:20:30.327Z,20.42
2022-10-18T05:21:02.762Z,19.74
2022-10-18T05:21:35.209Z,19.98
2022-10-18T05:22:08.130Z,20.10
2022-10-18T05:22:40.446Z,29.90
2022-10-18T05:23:12.722Z,28.22
2022-10-18T05:23:45.067Z,33.80
2022-10-18T05:24:17.350Z,27.24
2022-10-18T05:24:49.587Z,22.26
2022-10-18T05:25:22.050Z,22.46
2022-10-18T05:25:54.750Z,23.80
2022-10-18T05:26:27.290Z,22.10
2022-10-18T05:26:59.611Z,23.16
2022-10-18T05:27:32.435Z,23.24
2022-10-18T05:28:10.944Z,21.24
2022-10-18T05:28:49.253Z,18.96
2022-10-18T05:29:21.755Z,17.26
2022-10-18T05:29:54.181Z,23.60
2022-10-18T05:30:27.333Z,20.00
2022-10-18T05:31:03.060Z,21.18
2022-10-18T05:31:35.582Z,21.74
2022-10-18T05:32:07.895Z,21.42
2022-10-18T05:32:40.199Z,22.70
2022-10-18T05:33:12.676Z,23.12
2022-10-18T05:33:45.155Z,21.14
2022-10-18T05:34:17.590Z,21.78
2022-10-18T05:34:49.952Z,27.30
2022-10-18T05:35:22.227Z,18.40
2022-10-18T05:35:54.717Z,19.80
2022-10-18T05:36:27.243Z,22.56
2022-10-18T05:36:59.940Z,21.88
2022-10-18T05:37:32.306Z,22.16
2022-10-18T05:38:06.158Z,21.82
2022-10-18T05:38:39.135Z,23.40
2022-10-18T05:39:11.664Z,21.56
2022-10-18T05:39:43.945Z,34.20
2022-10-18T05:40:16.363Z,22.92
2022-10-18T05:40:48.861Z,21.74
2022-10-18T05:41:21.476Z,18.56
2022-10-18T05:41:53.889Z,19.90
2022-10-18T05:42:26.359Z,20.06
2022-10-18T05:42:58.714Z,19.94
2022-10-18T05:43:31.043Z,18.86
2022-10-18T05:44:04.835Z,23.82
2022-10-18T05:44:37.099Z,21.16
2022-10-18T05:45:09.437Z,21.52
2022-10-18T05:45:47.208Z,24.90
2022-10-18T05:46:19.551Z,19.28
2022-10-18T05:46:51.909Z,21.94
2022-10-18T05:47:24.309Z,22.94
2022-10-18T05:47:56.727Z,18.56
2022-10-18T05:48:29.047Z,19.72
2022-10-18T05:49:01.465Z,24.54
2022-10-18T05:49:33.747Z,23.94
2022-10-18T05:50:06.142Z,21.24
2022-10-18T05:50:40.359Z,19.20
2022-10-18T05:51:12.997Z,21.02
2022-10-18T05:51:45.342Z,19.36
2022-10-18T05:52:17.953Z,19.74
2022-10-18T05:52:50.419Z,21.60
2022-10-18T05:53:36.198Z,19.88
2022-10-18T05:54:11.723Z,18.88
2022-10-18T05:54:44.227Z,22.88
2022-10-18T05:55:16.531Z,19.76
2022-10-18T05:55:48.787Z,23.48
2022-10-18T05:56:21.140Z,22.94
2022-10-18T05:56:53.568Z,20.38
2022-10-18T05:57:25.904Z,21.66
2022-10-18T05:57:58.206Z,24.82
2022-10-18T05:58:30.538Z,21.48
2022-10-18T05:59:05.244Z,20.90
2022-10-18T05:59:37.666Z,21.46
2022-10-18T06:00:10.467Z,19.96
2022-10-18T06:00:47.507Z,20.36
2022-10-18T06:01:20.141Z,18.00
2022-10-18T06:01:52.396Z,24.46
2022-10-18T06:02:24.866Z,21.42
2022-10-18T06:03:00.154Z,20.74
2022-10-18T06:03:33.437Z,19.34
2022-10-18T06:04:05.907Z,19.36
2022-10-18T06:04:38.236Z,21.50
2022-10-18T06:05:10.612Z,19.02
2022-10-18T06:05:42.910Z,19.14
2022-10-18T06:06:15.929Z,25.90
2022-10-18T06:06:48.276Z,18.96
2022-10-18T06:07:20.559Z,18.68
2022-10-18T06:07:52.946Z,19.58
2022-10-18T06:08:25.239Z,24.02
2022-10-18T06:08:57.559Z,20.46
2022-10-18T06:09:31.270Z,21.16
2022-10-18T06:10:03.842Z,23.46
2022-10-18T06:10:38.529Z,19.30
2022-10-18T06:11:12.220Z,23.70
2022-10-18T06:11:44.485Z,18.44
2022-10-18T06:12:16.783Z,19.70
2022-10-18T06:12:49.040Z,18.42
2022-10-18T06:13:21.348Z,21.38
2022-10-18T06:13:53.820Z,22.20
2022-10-18T06:14:26.127Z,18.68
2022-10-18T06:14:58.536Z,21.14
2022-10-18T06:15:30.896Z,18.15
2022-10-18T06:16:03.230Z,20.34
2022-10-18T06:17:08.242Z,23.34
2022-10-18T06:17:40.548Z,18.58
2022-10-18T06:18:13.078Z,17.40
2022-10-18T06:18:49.025Z,20.00
2022-10-18T06:19:21.504Z,20.06
2022-10-18T06:19:53.808Z,22.40
2022-10-18T06:20:26.113Z,18.86
2022-10-18T06:20:59.158Z,21.26
2022-10-18T06:21:31.623Z,20.54
2022-10-18T06:22:04.007Z,22.10
2022-10-18T06:22:36.456Z,19.04
2022-10-18T06:23:08.833Z,23.00
2022-10-18T06:23:41.105Z,19.98
2022-10-18T06:24:13.405Z,21.74
2022-10-18T06:24:45.655Z,19.32
2022-10-18T06:25:17.976Z,17.98
2022-10-18T06:25:50.264Z,21.02
2022-10-18T06:26:22.799Z,22.24
2022-10-18T06:26:55.300Z,24.30
2022-10-18T06:27:27.628Z,23.36
2022-10-18T06:28:00.002Z,18.12
2022-10-18T06:28:34.182Z,21.08
2022-10-18T06:29:06.611Z,20.24
2022-10-18T06:29:39.914Z,24.08
2022-10-18T06:30:12.355Z,19.60
2022-10-18T06:30:44.989Z,21.20
2022-10-18T06:31:17.691Z,17.00
2022-10-18T06:31:50.019Z,19.65
2022-10-18T06:32:22.364Z,22.54
2022-10-18T06:32:54.660Z,21.96
2022-10-18T06:33:27.083Z,21.34
2022-10-18T06:33:59.513Z,25.02
2022-10-18T06:34:32.068Z,18.24
2022-10-18T06:35:04.570Z,24.96
2022-10-18T06:35:37.001Z,19.06
2022-10-18T06:36:14.438Z,19.00
2022-10-18T06:36:46.750Z,21.58
2022-10-18T06:37:19.019Z,23.05
2022-10-18T06:37:51.556Z,20.64
2022-10-18T06:38:24.243Z,19.08
2022-10-18T06:38:57.033Z,20.76
2022-10-18T06:39:29.534Z,19.48
2022-10-18T06:40:01.864Z,22.20
2022-10-18T06:40:38.330Z,26.40
2022-10-18T06:41:10.670Z,21.83
2022-10-18T06:41:42.950Z,19.14
2022-10-18T06:42:24.743Z,20.92
2022-10-18T06:43:00.630Z,21.33
2022-10-18T06:43:44.187Z,21.54
2022-10-18T06:44:17.656Z,22.00
2022-10-18T06:44:50.358Z,19.70
2022-10-18T06:45:22.956Z,19.67
2022-10-18T06:45:55.962Z,20.18
2022-10-18T06:46:28.280Z,23.28
2022-10-18T06:47:00.695Z,17.00
2022-10-18T06:47:33.020Z,23.05
2022-10-18T06:48:05.511Z,21.85
2022-10-18T06:48:38.956Z,22.40
2022-10-18T06:49:13.094Z,22.52
2022-10-18T06:49:47.557Z,23.73
2022-10-18T06:50:19.818Z,21.25
2022-10-18T06:50:53.002Z,21.40
2022-10-18T06:51:25.603Z,21.40
2022-10-18T06:51:57.966Z,22.55
2022-10-18T06:52:30.637Z,22.58
2022-10-18T06:53:06.305Z,21.88
2022-10-18T06:53:44.079Z,19.67
2022-10-18T06:54:25.677Z,19.33
2022-10-18T06:54:58.105Z,20.02
2022-10-18T06:55:30.969Z,22.67
2022-10-18T06:56:07.677Z,21.63
2022-10-18T06:56:39.987Z,22.92
2022-10-18T06:57:12.370Z,20.13
2022-10-18T06:57:44.729Z,18.73
2022-10-18T06:58:17.343Z,19.77
2022-10-18T06:58:49.849Z,27.13
2022-10-18T06:59:23.578Z,21.00
2022-10-18T06:59:57.967Z,18.77
2022-10-18T07:00:30.355Z,20.85
2022-10-18T07:01:20.894Z,20.95
2022-10-18T07:01:53.798Z,20.56
2022-10-18T07:02:26.146Z,22.30
2022-10-18T07:02:58.656Z,20.20
2022-10-18T07:03:31.413Z,23.23
2022-10-18T07:04:03.850Z,22.42
2022-10-18T07:04:36.179Z,22.60
2022-10-18T07:05:09.138Z,18.27
2022-10-18T07:05:41.594Z,21.20
2022-10-18T07:06:15.320Z,23.23
2022-10-18T07:06:47.617Z,17.75
2022-10-18T07:07:21.343Z,20.27
2022-10-18T07:07:56.365Z,22.02
2022-10-18T07:08:28.979Z,20.17
2022-10-18T07:09:03.245Z,20.33
2022-10-18T07:09:35.485Z,20.10
2022-10-18T07:10:11.173Z,17.13
2022-10-18T07:10:51.965Z,19.80
2022-10-18T07:11:25.922Z,21.70
2022-10-18T07:11:58.395Z,18.95
2022-10-18T07:12:31.585Z,20.30
2022-10-18T07:13:27.282Z,21.60
2022-10-18T07:14:02.483Z,17.35
2022-10-18T07:14:34.845Z,21.17
2022-10-18T07:15:09.522Z,17.23
2022-10-18T07:15:41.846Z,24.45
2022-10-18T07:16:18.167Z,20.85
2022-10-18T07:16:51.096Z,17.92
2022-10-18T07:17:23.617Z,22.30
2022-10-18T07:17:56.213Z,23.77
2022-10-18T07:18:28.595Z,21.80
2022-10-18T07:19:00.898Z,17.30